PWSweather.com
Personal Weather Stations
Station Observations
ITROMSHA6
HarstadNO 9407

HarstadNO 9407

Lat: 68.7814767, Lon: 16.5297091

Elevation: 145

Station Type: Davis Vantage Pro2

High Low Average
Temperature 41.0°F5.0°C 29.4°F-1.4°C 37.2°F2.9°C
Dew Point 30.7°F-0.7°C 23.0°F-5.0°C 26.3°F-3.2°C
Winds 12.0 mph 19.3 kmh Calm Calm 5.0 mph SE8.0 kmh SE
Wind Gusts 13.0 mph20.9 kmh -- 2.0 mph3.2 kmh
Humidity 86% 49% 65%
Pressure 29.93 in1013.5 mb 29.84 in1010.5 mb -
Precipitation 0.00 in0.0 mm - -
Hour Temp Dew Point Humidity Winds Wind Gusts Pressure Precip Precip Rate Daily Precip Total
12:00 AM 33.5°F0.8°C 27.7°F-2.4°C 79% 2.0 mph NW3.2 kmh NW -- 29.84 in1010.5 mb 0.00 in0.0 mm 0.00 in0.0 mm 0.00 in0.0 mm
12:05 AM 33.0°F0.6°C 27.0°F-2.8°C 78% 2.0 mph W3.2 kmh W -- 29.84 in1010.5 mb 0.00 in0.0 mm 0.00 in0.0 mm 0.00 in0.0 mm
12:10 AM 32.5°F0.3°C 26.8°F-2.9°C 79% 2.0 mph W3.2 kmh W -- 29.84 in1010.5 mb 0.00 in0.0 mm 0.00 in0.0 mm 0.00 in0.0 mm
12:15 AM 32.1°F0.1°C 26.8°F-2.9°C 80% 5.0 mph WSW8.0 kmh WSW -- 29.84 in1010.5 mb 0.00 in0.0 mm 0.00 in0.0 mm 0.00 in0.0 mm
12:20 AM 31.8°F-0.1°C 26.6°F-3.0°C 81% 3.0 mph WSW4.8 kmh WSW 5.0 mph8.0 kmh 29.84 in1010.5 mb 0.00 in0.0 mm 0.00 in0.0 mm 0.00 in0.0 mm
12:25 AM 31.6°F-0.2°C 26.8°F-2.9°C 82% 2.0 mph SW3.2 kmh SW -- 29.84 in1010.5 mb 0.00 in0.0 mm 0.00 in0.0 mm 0.00 in0.0 mm
12:30 AM 31.9°F-0.1°C 27.0°F-2.8°C 82% 5.0 mph WSW8.0 kmh WSW -- 29.84 in1010.5 mb 0.00 in0.0 mm 0.00 in0.0 mm 0.00 in0.0 mm
12:35 AM 32.2°F0.1°C 27.3°F-2.6°C 82% 4.0 mph W6.4 kmh W -- 29.85 in1010.8 mb 0.00 in0.0 mm 0.00 in0.0 mm 0.00 in0.0 mm
12:40 AM 32.3°F0.2°C 27.5°F-2.5°C 82% 5.0 mph WSW8.0 kmh WSW -- 29.85 in1010.8 mb 0.00 in0.0 mm 0.00 in0.0 mm 0.00 in0.0 mm
12:45 AM 32.5°F0.3°C 27.7°F-2.4°C 82% 3.0 mph WSW4.8 kmh WSW 7.0 mph11.3 kmh 29.85 in1010.8 mb 0.00 in0.0 mm 0.00 in0.0 mm 0.00 in0.0 mm
12:50 AM 32.5°F0.3°C 27.7°F-2.4°C 82% 5.0 mph WSW8.0 kmh WSW -- 29.85 in1010.8 mb 0.00 in0.0 mm 0.00 in0.0 mm 0.00 in0.0 mm
12:55 AM 32.5°F0.3°C 27.7°F-2.4°C 82% 6.0 mph W9.7 kmh W -- 29.85 in1010.8 mb 0.00 in0.0 mm 0.00 in0.0 mm 0.00 in0.0 mm
01:00 AM 32.3°F0.2°C 27.1°F-2.7°C 81% 5.0 mph W8.0 kmh W -- 29.85 in1010.8 mb 0.00 in0.0 mm 0.00 in0.0 mm 0.00 in0.0 mm
01:05 AM 32.3°F0.2°C 27.5°F-2.5°C 82% 2.0 mph WSW3.2 kmh WSW -- 29.85 in1010.8 mb 0.00 in0.0 mm 0.00 in0.0 mm 0.00 in0.0 mm
01:10 AM 32.5°F0.3°C 28.0°F-2.2°C 83% 3.0 mph WSW4.8 kmh WSW 7.0 mph11.3 kmh 29.85 in1010.8 mb 0.00 in0.0 mm 0.00 in0.0 mm 0.00 in0.0 mm
01:15 AM 32.6°F0.3°C 27.7°F-2.4°C 82% 5.0 mph W8.0 kmh W -- 29.85 in1010.8 mb 0.00 in0.0 mm 0.00 in0.0 mm 0.00 in0.0 mm
01:20 AM 32.3°F0.2°C 27.5°F-2.5°C 82% 4.0 mph WSW6.4 kmh WSW -- 29.85 in1010.8 mb 0.00 in0.0 mm 0.00 in0.0 mm 0.00 in0.0 mm
01:25 AM 32.0°F0.0°C 27.5°F-2.5°C 83% 4.0 mph WSW6.4 kmh WSW -- 29.85 in1010.8 mb 0.00 in0.0 mm 0.00 in0.0 mm 0.00 in0.0 mm
01:30 AM 32.0°F0.0°C 27.5°F-2.5°C 83% 4.0 mph WSW6.4 kmh WSW -- 29.85 in1010.8 mb 0.00 in0.0 mm 0.00 in0.0 mm 0.00 in0.0 mm
01:35 AM 31.5°F-0.3°C 27.0°F-2.8°C 83% 4.0 mph W6.4 kmh W 7.0 mph11.3 kmh 29.85 in1010.8 mb 0.00 in0.0 mm 0.00 in0.0 mm 0.00 in0.0 mm
01:40 AM 31.4°F-0.3°C 27.0°F-2.8°C 83% 3.0 mph WSW4.8 kmh WSW -- 29.85 in1010.8 mb 0.00 in0.0 mm 0.00 in0.0 mm 0.00 in0.0 mm
01:45 AM 31.2°F-0.4°C 26.8°F-2.9°C 83% 3.0 mph SW4.8 kmh SW -- 29.86 in1011.2 mb 0.00 in0.0 mm 0.00 in0.0 mm 0.00 in0.0 mm
01:50 AM 30.9°F-0.6°C 26.6°F-3.0°C 84% 3.0 mph SW4.8 kmh SW -- 29.86 in1011.2 mb 0.00 in0.0 mm 0.00 in0.0 mm 0.00 in0.0 mm
01:55 AM 30.5°F-0.8°C 26.1°F-3.3°C 83% 4.0 mph SW6.4 kmh SW -- 29.86 in1011.2 mb 0.00 in0.0 mm 0.00 in0.0 mm 0.00 in0.0 mm
02:00 AM 30.1°F-1.1°C 26.1°F-3.3°C 85% 2.0 mph SW3.2 kmh SW 4.0 mph6.4 kmh 29.86 in1011.2 mb 0.00 in0.0 mm 0.00 in0.0 mm 0.00 in0.0 mm
02:05 AM 30.0°F-1.1°C 26.4°F-3.1°C 86% 4.0 mph WSW6.4 kmh WSW -- 29.86 in1011.2 mb 0.00 in0.0 mm 0.00 in0.0 mm 0.00 in0.0 mm
02:10 AM 30.3°F-0.9°C 26.8°F-2.9°C 86% 3.0 mph WSW4.8 kmh WSW -- 29.86 in1011.2 mb 0.00 in0.0 mm 0.00 in0.0 mm 0.00 in0.0 mm
02:15 AM 30.3°F-0.9°C 26.8°F-2.9°C 86% 4.0 mph WSW6.4 kmh WSW -- 29.86 in1011.2 mb 0.00 in0.0 mm 0.00 in0.0 mm 0.00 in0.0 mm
02:20 AM 30.2°F-1.0°C 26.6°F-3.0°C 86% 4.0 mph WSW6.4 kmh WSW -- 29.86 in1011.2 mb 0.00 in0.0 mm 0.00 in0.0 mm 0.00 in0.0 mm
02:25 AM 30.0°F-1.1°C 26.4°F-3.1°C 86% 4.0 mph W6.4 kmh W 6.0 mph9.7 kmh 29.86 in1011.2 mb 0.00 in0.0 mm 0.00 in0.0 mm 0.00 in0.0 mm
02:30 AM 30.3°F-0.9°C 26.8°F-2.9°C 86% 4.0 mph WSW6.4 kmh WSW -- 29.86 in1011.2 mb 0.00 in0.0 mm 0.00 in0.0 mm 0.00 in0.0 mm
02:35 AM 30.0°F-1.1°C 26.1°F-3.3°C 85% 6.0 mph WSW9.7 kmh WSW -- 29.86 in1011.2 mb 0.00 in0.0 mm 0.00 in0.0 mm 0.00 in0.0 mm
02:40 AM 30.1°F-1.1°C 26.1°F-3.3°C 85% 5.0 mph WSW8.0 kmh WSW -- 29.86 in1011.2 mb 0.00 in0.0 mm 0.00 in0.0 mm 0.00 in0.0 mm
02:45 AM 30.2°F-1.0°C 26.2°F-3.2°C 85% 5.0 mph SW8.0 kmh SW -- 29.87 in1011.5 mb 0.00 in0.0 mm 0.00 in0.0 mm 0.00 in0.0 mm
02:50 AM 30.4°F-0.9°C 26.4°F-3.1°C 85% 4.0 mph WSW6.4 kmh WSW 6.0 mph9.7 kmh 29.87 in1011.5 mb 0.00 in0.0 mm 0.00 in0.0 mm 0.00 in0.0 mm
02:55 AM 30.5°F-0.8°C 26.2°F-3.2°C 84% 4.0 mph WSW6.4 kmh WSW -- 29.87 in1011.5 mb 0.00 in0.0 mm 0.00 in0.0 mm 0.00 in0.0 mm
03:00 AM 30.3°F-0.9°C 25.9°F-3.4°C 83% 4.0 mph WSW6.4 kmh WSW -- 29.87 in1011.5 mb 0.00 in0.0 mm 0.00 in0.0 mm 0.00 in0.0 mm
03:05 AM 29.7°F-1.3°C 25.2°F-3.8°C 83% 6.0 mph WSW9.7 kmh WSW -- 29.87 in1011.5 mb 0.00 in0.0 mm 0.00 in0.0 mm 0.00 in0.0 mm
03:10 AM 29.6°F-1.3°C 25.3°F-3.7°C 84% 5.0 mph W8.0 kmh W -- 29.87 in1011.5 mb 0.00 in0.0 mm 0.00 in0.0 mm 0.00 in0.0 mm
03:15 AM 29.5°F-1.4°C 25.3°F-3.7°C 84% 4.0 mph WSW6.4 kmh WSW 7.0 mph11.3 kmh 29.87 in1011.5 mb 0.00 in0.0 mm 0.00 in0.0 mm 0.00 in0.0 mm
03:20 AM 29.4°F-1.4°C 25.3°F-3.7°C 84% 6.0 mph WSW9.7 kmh WSW -- 29.87 in1011.5 mb 0.00 in0.0 mm 0.00 in0.0 mm 0.00 in0.0 mm
03:25 AM 29.6°F-1.3°C 25.3°F-3.7°C 84% 5.0 mph WSW8.0 kmh WSW -- 29.87 in1011.5 mb 0.00 in0.0 mm 0.00 in0.0 mm 0.00 in0.0 mm
03:30 AM 29.9°F-1.2°C 25.5°F-3.6°C 84% 5.0 mph WSW8.0 kmh WSW -- 29.87 in1011.5 mb 0.00 in0.0 mm 0.00 in0.0 mm 0.00 in0.0 mm
03:35 AM 30.3°F-0.9°C 25.9°F-3.4°C 83% 3.0 mph WSW4.8 kmh WSW -- 29.87 in1011.5 mb 0.00 in0.0 mm 0.00 in0.0 mm 0.00 in0.0 mm
03:40 AM 30.7°F-0.7°C 26.2°F-3.2°C 83% 5.0 mph WSW8.0 kmh WSW 6.0 mph9.7 kmh 29.87 in1011.5 mb 0.00 in0.0 mm 0.00 in0.0 mm 0.00 in0.0 mm
03:45 AM 31.1°F-0.5°C 26.2°F-3.2°C 82% 4.0 mph WSW6.4 kmh WSW -- 29.87 in1011.5 mb 0.00 in0.0 mm 0.00 in0.0 mm 0.00 in0.0 mm
03:50 AM 31.2°F-0.4°C 26.1°F-3.3°C 81% 5.0 mph WSW8.0 kmh WSW -- 29.87 in1011.5 mb 0.00 in0.0 mm 0.00 in0.0 mm 0.00 in0.0 mm
03:55 AM 31.2°F-0.4°C 26.1°F-3.3°C 81% 2.0 mph WSW3.2 kmh WSW -- 29.87 in1011.5 mb 0.00 in0.0 mm 0.00 in0.0 mm 0.00 in0.0 mm
04:00 AM 31.3°F-0.4°C 26.1°F-3.3°C 81% 4.0 mph WSW6.4 kmh WSW -- 29.87 in1011.5 mb 0.00 in0.0 mm 0.00 in0.0 mm 0.00 in0.0 mm
04:05 AM 31.8°F-0.1°C 26.6°F-3.0°C 81% 3.0 mph WSW4.8 kmh WSW 5.0 mph8.0 kmh 29.87 in1011.5 mb 0.00 in0.0 mm 0.00 in0.0 mm 0.00 in0.0 mm
04:10 AM 32.1°F0.1°C 26.8°F-2.9°C 80% 2.0 mph WSW3.2 kmh WSW -- 29.87 in1011.5 mb 0.00 in0.0 mm 0.00 in0.0 mm 0.00 in0.0 mm
04:15 AM 32.7°F0.4°C 27.3°F-2.6°C 80% 3.0 mph WSW4.8 kmh WSW -- 29.87 in1011.5 mb 0.00 in0.0 mm 0.00 in0.0 mm 0.00 in0.0 mm
04:20 AM 33.1°F0.6°C 27.3°F-2.6°C 79% Calm Calm -- 29.87 in1011.5 mb 0.00 in0.0 mm 0.00 in0.0 mm 0.00 in0.0 mm
04:25 AM 33.4°F0.8°C 27.3°F-2.6°C 78% 1.0 mph WSW1.6 kmh WSW -- 29.87 in1011.5 mb 0.00 in0.0 mm 0.00 in0.0 mm 0.00 in0.0 mm
04:30 AM 33.4°F0.8°C 27.3°F-2.6°C 78% 1.0 mph WSW1.6 kmh WSW 3.0 mph4.8 kmh 29.87 in1011.5 mb 0.00 in0.0 mm 0.00 in0.0 mm 0.00 in0.0 mm
04:35 AM 33.6°F0.9°C 27.1°F-2.7°C 77% Calm Calm -- 29.87 in1011.5 mb 0.00 in0.0 mm 0.00 in0.0 mm 0.00 in0.0 mm
04:40 AM 33.8°F1.0°C 27.3°F-2.6°C 77% Calm Calm -- 29.87 in1011.5 mb 0.00 in0.0 mm 0.00 in0.0 mm 0.00 in0.0 mm
04:45 AM 34.1°F1.2°C 27.7°F-2.4°C 77% 1.0 mph SW1.6 kmh SW -- 29.87 in1011.5 mb 0.00 in0.0 mm 0.00 in0.0 mm 0.00 in0.0 mm
04:50 AM 34.6°F1.4°C 27.1°F-2.7°C 74% 2.0 mph S3.2 kmh S -- 29.87 in1011.5 mb 0.00 in0.0 mm 0.00 in0.0 mm 0.00 in0.0 mm
04:55 AM 34.8°F1.6°C 26.8°F-2.9°C 72% 5.0 mph S8.0 kmh S 8.0 mph12.9 kmh 29.88 in1011.9 mb 0.00 in0.0 mm 0.00 in0.0 mm 0.00 in0.0 mm
05:00 AM 34.8°F1.6°C 26.1°F-3.3°C 70% 1.0 mph SSE1.6 kmh SSE -- 29.88 in1011.9 mb 0.00 in0.0 mm 0.00 in0.0 mm 0.00 in0.0 mm
05:05 AM 35.0°F1.7°C 25.9°F-3.4°C 69% 6.0 mph SSE9.7 kmh SSE -- 29.88 in1011.9 mb 0.00 in0.0 mm 0.00 in0.0 mm 0.00 in0.0 mm
05:10 AM 35.0°F1.7°C 25.2°F-3.8°C 67% 7.0 mph SSE11.3 kmh SSE -- 29.88 in1011.9 mb 0.00 in0.0 mm 0.00 in0.0 mm 0.00 in0.0 mm
05:15 AM 35.2°F1.8°C 25.3°F-3.7°C 67% 5.0 mph SSE8.0 kmh SSE -- 29.88 in1011.9 mb 0.00 in0.0 mm 0.00 in0.0 mm 0.00 in0.0 mm
05:20 AM 35.2°F1.8°C 25.0°F-3.9°C 66% 4.0 mph S6.4 kmh S 8.0 mph12.9 kmh 29.88 in1011.9 mb 0.00 in0.0 mm 0.00 in0.0 mm 0.00 in0.0 mm
05:25 AM 35.3°F1.8°C 24.6°F-4.1°C 65% 2.0 mph S3.2 kmh S -- 29.88 in1011.9 mb 0.00 in0.0 mm 0.00 in0.0 mm 0.00 in0.0 mm
05:30 AM 35.6°F2.0°C 25.0°F-3.9°C 65% 1.0 mph SE1.6 kmh SE -- 29.88 in1011.9 mb 0.00 in0.0 mm 0.00 in0.0 mm 0.00 in0.0 mm
05:35 AM 36.0°F2.2°C 25.7°F-3.5°C 66% 2.0 mph SSE3.2 kmh SSE -- 29.88 in1011.9 mb 0.00 in0.0 mm 0.00 in0.0 mm 0.00 in0.0 mm
05:40 AM 36.2°F2.3°C 25.2°F-3.8°C 64% 1.0 mph SSE1.6 kmh SSE -- 29.88 in1011.9 mb 0.00 in0.0 mm 0.00 in0.0 mm 0.00 in0.0 mm
05:45 AM 36.3°F2.4°C 25.0°F-3.9°C 63% 1.0 mph SSE1.6 kmh SSE 5.0 mph8.0 kmh 29.88 in1011.9 mb 0.00 in0.0 mm 0.00 in0.0 mm 0.00 in0.0 mm
05:50 AM 36.4°F2.4°C 25.0°F-3.9°C 63% 1.0 mph S1.6 kmh S -- 29.88 in1011.9 mb 0.00 in0.0 mm 0.00 in0.0 mm 0.00 in0.0 mm
05:55 AM 36.6°F2.6°C 25.3°F-3.7°C 63% Calm Calm -- 29.88 in1011.9 mb 0.00 in0.0 mm 0.00 in0.0 mm 0.00 in0.0 mm
06:00 AM 37.2°F2.9°C 25.9°F-3.4°C 63% Calm Calm -- 29.88 in1011.9 mb 0.00 in0.0 mm 0.00 in0.0 mm 0.00 in0.0 mm
06:05 AM 37.7°F3.2°C 25.5°F-3.6°C 61% 6.0 mph SE9.7 kmh SE -- 29.88 in1011.9 mb 0.00 in0.0 mm 0.00 in0.0 mm 0.00 in0.0 mm
06:10 AM 37.1°F2.8°C 24.8°F-4.0°C 61% 3.0 mph E4.8 kmh E 6.0 mph9.7 kmh 29.88 in1011.9 mb 0.00 in0.0 mm 0.00 in0.0 mm 0.00 in0.0 mm
06:15 AM 36.9°F2.7°C 25.2°F-3.8°C 62% 3.0 mph E4.8 kmh E -- 29.88 in1011.9 mb 0.00 in0.0 mm 0.00 in0.0 mm 0.00 in0.0 mm
06:20 AM 37.0°F2.8°C 25.2°F-3.8°C 62% 1.0 mph E1.6 kmh E -- 29.88 in1011.9 mb 0.00 in0.0 mm 0.00 in0.0 mm 0.00 in0.0 mm
06:25 AM 37.1°F2.8°C 24.8°F-4.0°C 61% 6.0 mph SE9.7 kmh SE -- 29.89 in1012.2 mb 0.00 in0.0 mm 0.00 in0.0 mm 0.00 in0.0 mm
06:30 AM 37.0°F2.8°C 25.2°F-3.8°C 62% 4.0 mph ESE6.4 kmh ESE -- 29.89 in1012.2 mb 0.00 in0.0 mm 0.00 in0.0 mm 0.00 in0.0 mm
06:35 AM 37.2°F2.9°C 25.0°F-3.9°C 61% 2.0 mph ESE3.2 kmh ESE 7.0 mph11.3 kmh 29.89 in1012.2 mb 0.00 in0.0 mm 0.00 in0.0 mm 0.00 in0.0 mm
06:40 AM 37.4°F3.0°C 25.5°F-3.6°C 62% 1.0 mph ESE1.6 kmh ESE -- 29.89 in1012.2 mb 0.00 in0.0 mm 0.00 in0.0 mm 0.00 in0.0 mm
06:45 AM 37.9°F3.3°C 25.7°F-3.5°C 61% 3.0 mph E4.8 kmh E -- 29.89 in1012.2 mb 0.00 in0.0 mm 0.00 in0.0 mm 0.00 in0.0 mm
06:50 AM 37.7°F3.2°C 25.5°F-3.6°C 61% 1.0 mph ENE1.6 kmh ENE -- 29.89 in1012.2 mb 0.00 in0.0 mm 0.00 in0.0 mm 0.00 in0.0 mm
06:55 AM 37.6°F3.1°C 25.3°F-3.7°C 61% 3.0 mph E4.8 kmh E -- 29.89 in1012.2 mb 0.00 in0.0 mm 0.00 in0.0 mm 0.00 in0.0 mm
07:00 AM 38.0°F3.3°C 25.7°F-3.5°C 61% 1.0 mph E1.6 kmh E 5.0 mph8.0 kmh 29.89 in1012.2 mb 0.00 in0.0 mm 0.00 in0.0 mm 0.00 in0.0 mm
07:05 AM 38.4°F3.6°C 25.9°F-3.4°C 60% 3.0 mph NE4.8 kmh NE -- 29.89 in1012.2 mb 0.00 in0.0 mm 0.00 in0.0 mm 0.00 in0.0 mm
07:10 AM 38.2°F3.4°C 25.5°F-3.6°C 60% 2.0 mph E3.2 kmh E -- 29.89 in1012.2 mb 0.00 in0.0 mm 0.00 in0.0 mm 0.00 in0.0 mm
07:15 AM 38.0°F3.3°C 25.7°F-3.5°C 61% 5.0 mph NE8.0 kmh NE -- 29.89 in1012.2 mb 0.00 in0.0 mm 0.00 in0.0 mm 0.00 in0.0 mm
07:20 AM 37.8°F3.2°C 25.5°F-3.6°C 61% 1.0 mph E1.6 kmh E -- 29.89 in1012.2 mb 0.00 in0.0 mm 0.00 in0.0 mm 0.00 in0.0 mm
07:25 AM 38.2°F3.4°C 25.9°F-3.4°C 61% 2.0 mph E3.2 kmh E 6.0 mph9.7 kmh 29.89 in1012.2 mb 0.00 in0.0 mm 0.00 in0.0 mm 0.00 in0.0 mm
07:30 AM 38.2°F3.4°C 26.2°F-3.2°C 62% 5.0 mph ENE8.0 kmh ENE -- 29.89 in1012.2 mb 0.00 in0.0 mm 0.00 in0.0 mm 0.00 in0.0 mm
07:35 AM 38.2°F3.4°C 26.2°F-3.2°C 62% 1.0 mph NE1.6 kmh NE -- 29.89 in1012.2 mb 0.00 in0.0 mm 0.00 in0.0 mm 0.00 in0.0 mm
07:40 AM 38.2°F3.4°C 25.9°F-3.4°C 61% 6.0 mph ENE9.7 kmh ENE -- 29.89 in1012.2 mb 0.00 in0.0 mm 0.00 in0.0 mm 0.00 in0.0 mm
07:45 AM 38.0°F3.3°C 25.7°F-3.5°C 61% 9.0 mph NE14.5 kmh NE -- 29.89 in1012.2 mb 0.00 in0.0 mm 0.00 in0.0 mm 0.00 in0.0 mm
07:50 AM 37.9°F3.3°C 26.8°F-2.9°C 64% 5.0 mph NE8.0 kmh NE 13.0 mph20.9 kmh 29.90 in1012.5 mb 0.00 in0.0 mm 0.00 in0.0 mm 0.00 in0.0 mm
07:55 AM 38.1°F3.4°C 26.6°F-3.0°C 63% 6.0 mph NE9.7 kmh NE -- 29.90 in1012.5 mb 0.00 in0.0 mm 0.00 in0.0 mm 0.00 in0.0 mm
08:00 AM 37.8°F3.2°C 26.8°F-2.9°C 64% 6.0 mph NE9.7 kmh NE -- 29.90 in1012.5 mb 0.00 in0.0 mm 0.00 in0.0 mm 0.00 in0.0 mm
08:05 AM 37.8°F3.2°C 26.8°F-2.9°C 64% 8.0 mph NE12.9 kmh NE -- 29.90 in1012.5 mb 0.00 in0.0 mm 0.00 in0.0 mm 0.00 in0.0 mm
08:10 AM 37.8°F3.2°C 27.1°F-2.7°C 65% 9.0 mph NE14.5 kmh NE -- 29.90 in1012.5 mb 0.00 in0.0 mm 0.00 in0.0 mm 0.00 in0.0 mm
08:15 AM 37.8°F3.2°C 27.1°F-2.7°C 65% 11.0 mph NE17.7 kmh NE 11.0 mph17.7 kmh 29.90 in1012.5 mb 0.00 in0.0 mm 0.00 in0.0 mm 0.00 in0.0 mm
08:20 AM 37.5°F3.1°C 27.7°F-2.4°C 67% 5.0 mph ENE8.0 kmh ENE -- 29.90 in1012.5 mb 0.00 in0.0 mm 0.00 in0.0 mm 0.00 in0.0 mm
08:25 AM 37.1°F2.8°C 26.8°F-2.9°C 66% 7.0 mph ENE11.3 kmh ENE -- 29.90 in1012.5 mb 0.00 in0.0 mm 0.00 in0.0 mm 0.00 in0.0 mm
08:30 AM 37.5°F3.1°C 27.3°F-2.6°C 66% 7.0 mph ENE11.3 kmh ENE -- 29.90 in1012.5 mb 0.00 in0.0 mm 0.00 in0.0 mm 0.00 in0.0 mm
08:35 AM 37.7°F3.2°C 27.1°F-2.7°C 65% 2.0 mph NNE3.2 kmh NNE -- 29.91 in1012.9 mb 0.00 in0.0 mm 0.00 in0.0 mm 0.00 in0.0 mm
08:40 AM 37.5°F3.1°C 27.0°F-2.8°C 65% 8.0 mph NE12.9 kmh NE 10.0 mph16.1 kmh 29.90 in1012.5 mb 0.00 in0.0 mm 0.00 in0.0 mm 0.00 in0.0 mm
08:45 AM 37.6°F3.1°C 27.0°F-2.8°C 65% 2.0 mph E3.2 kmh E -- 29.91 in1012.9 mb 0.00 in0.0 mm 0.00 in0.0 mm 0.00 in0.0 mm
08:50 AM 37.7°F3.2°C 26.8°F-2.9°C 64% 6.0 mph NE9.7 kmh NE -- 29.90 in1012.5 mb 0.00 in0.0 mm 0.00 in0.0 mm 0.00 in0.0 mm
08:55 AM 37.7°F3.2°C 25.9°F-3.4°C 62% 7.0 mph N11.3 kmh N -- 29.91 in1012.9 mb 0.00 in0.0 mm 0.00 in0.0 mm 0.00 in0.0 mm
09:00 AM 37.9°F3.3°C 26.1°F-3.3°C 62% 6.0 mph NNE9.7 kmh NNE -- 29.91 in1012.9 mb 0.00 in0.0 mm 0.00 in0.0 mm 0.00 in0.0 mm
09:05 AM 37.9°F3.3°C 26.1°F-3.3°C 62% 8.0 mph NE12.9 kmh NE 9.0 mph14.5 kmh 29.91 in1012.9 mb 0.00 in0.0 mm 0.00 in0.0 mm 0.00 in0.0 mm
09:10 AM 37.7°F3.2°C 25.9°F-3.4°C 62% 6.0 mph NE9.7 kmh NE -- 29.91 in1012.9 mb 0.00 in0.0 mm 0.00 in0.0 mm 0.00 in0.0 mm
09:15 AM 37.9°F3.3°C 25.7°F-3.5°C 61% 8.0 mph NE12.9 kmh NE -- 29.91 in1012.9 mb 0.00 in0.0 mm 0.00 in0.0 mm 0.00 in0.0 mm
09:20 AM 38.0°F3.3°C 25.7°F-3.5°C 61% 4.0 mph NE6.4 kmh NE -- 29.91 in1012.9 mb 0.00 in0.0 mm 0.00 in0.0 mm 0.00 in0.0 mm
09:25 AM 38.4°F3.6°C 25.9°F-3.4°C 60% 6.0 mph ENE9.7 kmh ENE -- 29.91 in1012.9 mb 0.00 in0.0 mm 0.00 in0.0 mm 0.00 in0.0 mm
09:30 AM 38.2°F3.4°C 26.2°F-3.2°C 62% 10.0 mph ENE16.1 kmh ENE 11.0 mph17.7 kmh 29.91 in1012.9 mb 0.00 in0.0 mm 0.00 in0.0 mm 0.00 in0.0 mm
09:35 AM 38.4°F3.6°C 27.0°F-2.8°C 63% 5.0 mph NE8.0 kmh NE -- 29.91 in1012.9 mb 0.00 in0.0 mm 0.00 in0.0 mm 0.00 in0.0 mm
09:40 AM 38.4°F3.6°C 26.6°F-3.0°C 62% 7.0 mph E11.3 kmh E -- 29.91 in1012.9 mb 0.00 in0.0 mm 0.00 in0.0 mm 0.00 in0.0 mm
09:45 AM 38.1°F3.4°C 26.6°F-3.0°C 63% 6.0 mph NE9.7 kmh NE -- 29.91 in1012.9 mb 0.00 in0.0 mm 0.00 in0.0 mm 0.00 in0.0 mm
09:50 AM 38.4°F3.6°C 27.0°F-2.8°C 63% 4.0 mph NE6.4 kmh NE -- 29.91 in1012.9 mb 0.00 in0.0 mm 0.00 in0.0 mm 0.00 in0.0 mm
09:55 AM 38.3°F3.5°C 26.1°F-3.3°C 61% 9.0 mph NE14.5 kmh NE 11.0 mph17.7 kmh 29.91 in1012.9 mb 0.00 in0.0 mm 0.00 in0.0 mm 0.00 in0.0 mm
10:00 AM 38.2°F3.4°C 25.9°F-3.4°C 61% 6.0 mph NNE9.7 kmh NNE -- 29.91 in1012.9 mb 0.00 in0.0 mm 0.00 in0.0 mm 0.00 in0.0 mm
10:05 AM 38.1°F3.4°C 26.6°F-3.0°C 63% 10.0 mph NE16.1 kmh NE -- 29.91 in1012.9 mb 0.00 in0.0 mm 0.00 in0.0 mm 0.00 in0.0 mm
10:10 AM 38.1°F3.4°C 26.6°F-3.0°C 63% 7.0 mph NE11.3 kmh NE -- 29.91 in1012.9 mb 0.00 in0.0 mm 0.00 in0.0 mm 0.00 in0.0 mm
10:15 AM 38.3°F3.5°C 26.8°F-2.9°C 63% 8.0 mph NE12.9 kmh NE -- 29.91 in1012.9 mb 0.00 in0.0 mm 0.00 in0.0 mm 0.00 in0.0 mm
10:20 AM 38.6°F3.7°C 26.1°F-3.3°C 60% 6.0 mph NE9.7 kmh NE 10.0 mph16.1 kmh 29.91 in1012.9 mb 0.00 in0.0 mm 0.00 in0.0 mm 0.00 in0.0 mm
10:25 AM 38.2°F3.4°C 25.2°F-3.8°C 59% 5.0 mph NE8.0 kmh NE -- 29.91 in1012.9 mb 0.00 in0.0 mm 0.00 in0.0 mm 0.00 in0.0 mm
10:30 AM 38.6°F3.7°C 25.5°F-3.6°C 59% 6.0 mph NE9.7 kmh NE -- 29.91 in1012.9 mb 0.00 in0.0 mm 0.00 in0.0 mm 0.00 in0.0 mm
10:35 AM 38.3°F3.5°C 26.1°F-3.3°C 61% 12.0 mph NE19.3 kmh NE -- 29.91 in1012.9 mb 0.00 in0.0 mm 0.00 in0.0 mm 0.00 in0.0 mm
10:40 AM 38.5°F3.6°C 26.2°F-3.2°C 61% 5.0 mph ENE8.0 kmh ENE -- 29.91 in1012.9 mb 0.00 in0.0 mm 0.00 in0.0 mm 0.00 in0.0 mm
10:45 AM 38.7°F3.7°C 26.1°F-3.3°C 60% 5.0 mph NNE8.0 kmh NNE 12.0 mph19.3 kmh 29.91 in1012.9 mb 0.00 in0.0 mm 0.00 in0.0 mm 0.00 in0.0 mm
10:50 AM 38.7°F3.7°C 26.1°F-3.3°C 60% 3.0 mph NNE4.8 kmh NNE -- 29.91 in1012.9 mb 0.00 in0.0 mm 0.00 in0.0 mm 0.00 in0.0 mm
10:55 AM 38.7°F3.7°C 25.2°F-3.8°C 58% 5.0 mph ENE8.0 kmh ENE -- 29.91 in1012.9 mb 0.00 in0.0 mm 0.00 in0.0 mm 0.00 in0.0 mm
11:00 AM 39.1°F3.9°C 25.9°F-3.4°C 59% 6.0 mph NE9.7 kmh NE -- 29.92 in1013.2 mb 0.00 in0.0 mm 0.00 in0.0 mm 0.00 in0.0 mm
11:05 AM 38.6°F3.7°C 25.5°F-3.6°C 59% 5.0 mph NE8.0 kmh NE -- 29.92 in1013.2 mb 0.00 in0.0 mm 0.00 in0.0 mm 0.00 in0.0 mm
11:10 AM 38.7°F3.7°C 25.5°F-3.6°C 59% 7.0 mph NE11.3 kmh NE 10.0 mph16.1 kmh 29.92 in1013.2 mb 0.00 in0.0 mm 0.00 in0.0 mm 0.00 in0.0 mm
11:15 AM 39.3°F4.1°C 25.9°F-3.4°C 58% 6.0 mph ENE9.7 kmh ENE -- 29.92 in1013.2 mb 0.00 in0.0 mm 0.00 in0.0 mm 0.00 in0.0 mm
11:20 AM 39.0°F3.9°C 25.9°F-3.4°C 59% 5.0 mph NNE8.0 kmh NNE -- 29.92 in1013.2 mb 0.00 in0.0 mm 0.00 in0.0 mm 0.00 in0.0 mm
11:25 AM 39.2°F4.0°C 25.7°F-3.5°C 58% 5.0 mph NE8.0 kmh NE -- 29.92 in1013.2 mb 0.00 in0.0 mm 0.00 in0.0 mm 0.00 in0.0 mm
11:30 AM 38.9°F3.8°C 25.0°F-3.9°C 57% 10.0 mph ENE16.1 kmh ENE -- 29.92 in1013.2 mb 0.00 in0.0 mm 0.00 in0.0 mm 0.00 in0.0 mm
11:35 AM 38.9°F3.8°C 25.0°F-3.9°C 57% 7.0 mph NE11.3 kmh NE 10.0 mph16.1 kmh 29.92 in1013.2 mb 0.00 in0.0 mm 0.00 in0.0 mm 0.00 in0.0 mm
11:40 AM 39.0°F3.9°C 25.9°F-3.4°C 59% 7.0 mph N11.3 kmh N -- 29.92 in1013.2 mb 0.00 in0.0 mm 0.00 in0.0 mm 0.00 in0.0 mm
11:45 AM 39.1°F3.9°C 25.5°F-3.6°C 58% 9.0 mph NE14.5 kmh NE -- 29.92 in1013.2 mb 0.00 in0.0 mm 0.00 in0.0 mm 0.00 in0.0 mm
11:50 AM 39.3°F4.1°C 25.9°F-3.4°C 58% 7.0 mph NNE11.3 kmh NNE -- 29.92 in1013.2 mb 0.00 in0.0 mm 0.00 in0.0 mm 0.00 in0.0 mm
11:55 AM 39.5°F4.2°C 26.1°F-3.3°C 58% 8.0 mph NNE12.9 kmh NNE -- 29.93 in1013.5 mb 0.00 in0.0 mm 0.00 in0.0 mm 0.00 in0.0 mm
12:00 PM 39.3°F4.1°C 25.0°F-3.9°C 56% 10.0 mph NE16.1 kmh NE 12.0 mph19.3 kmh 29.93 in1013.5 mb 0.00 in0.0 mm 0.00 in0.0 mm 0.00 in0.0 mm
12:05 PM 39.3°F4.1°C 25.0°F-3.9°C 56% 6.0 mph NE9.7 kmh NE -- 29.93 in1013.5 mb 0.00 in0.0 mm 0.00 in0.0 mm 0.00 in0.0 mm
12:10 PM 39.5°F4.2°C 25.2°F-3.8°C 56% 8.0 mph NE12.9 kmh NE -- 29.93 in1013.5 mb 0.00 in0.0 mm 0.00 in0.0 mm 0.00 in0.0 mm
12:15 PM 39.5°F4.2°C 25.5°F-3.6°C 57% 11.0 mph ENE17.7 kmh ENE -- 29.93 in1013.5 mb 0.00 in0.0 mm 0.00 in0.0 mm 0.00 in0.0 mm
12:20 PM 39.5°F4.2°C 25.5°F-3.6°C 57% 7.0 mph NE11.3 kmh NE -- 29.93 in1013.5 mb 0.00 in0.0 mm 0.00 in0.0 mm 0.00 in0.0 mm
12:25 PM 39.6°F4.2°C 25.5°F-3.6°C 57% 7.0 mph NE11.3 kmh NE 11.0 mph17.7 kmh 29.93 in1013.5 mb 0.00 in0.0 mm 0.00 in0.0 mm 0.00 in0.0 mm
12:30 PM 39.6°F4.2°C 25.5°F-3.6°C 57% 4.0 mph NE6.4 kmh NE -- 29.93 in1013.5 mb 0.00 in0.0 mm 0.00 in0.0 mm 0.00 in0.0 mm
12:35 PM 39.8°F4.3°C 25.3°F-3.7°C 56% 6.0 mph NE9.7 kmh NE -- 29.93 in1013.5 mb 0.00 in0.0 mm 0.00 in0.0 mm 0.00 in0.0 mm
12:40 PM 39.6°F4.2°C 24.3°F-4.3°C 54% 7.0 mph N11.3 kmh N -- 29.93 in1013.5 mb 0.00 in0.0 mm 0.00 in0.0 mm 0.00 in0.0 mm
12:45 PM 39.6°F4.2°C 24.8°F-4.0°C 55% 4.0 mph NE6.4 kmh NE -- 29.93 in1013.5 mb 0.00 in0.0 mm 0.00 in0.0 mm 0.00 in0.0 mm
12:50 PM 39.7°F4.3°C 25.3°F-3.7°C 56% 7.0 mph ENE11.3 kmh ENE 10.0 mph16.1 kmh 29.93 in1013.5 mb 0.00 in0.0 mm 0.00 in0.0 mm 0.00 in0.0 mm
12:55 PM 39.6°F4.2°C 25.2°F-3.8°C 56% 7.0 mph N11.3 kmh N -- 29.93 in1013.5 mb 0.00 in0.0 mm 0.00 in0.0 mm 0.00 in0.0 mm
01:00 PM 40.0°F4.4°C 25.5°F-3.6°C 56% 7.0 mph N11.3 kmh N -- 29.93 in1013.5 mb 0.00 in0.0 mm 0.00 in0.0 mm 0.00 in0.0 mm
01:05 PM 40.1°F4.5°C 24.8°F-4.0°C 54% 11.0 mph ENE17.7 kmh ENE -- 29.93 in1013.5 mb 0.00 in0.0 mm 0.00 in0.0 mm 0.00 in0.0 mm
01:10 PM 39.8°F4.3°C 24.4°F-4.2°C 54% 6.0 mph NE9.7 kmh NE -- 29.93 in1013.5 mb 0.00 in0.0 mm 0.00 in0.0 mm 0.00 in0.0 mm
01:15 PM 40.3°F4.6°C 25.3°F-3.7°C 55% 7.0 mph NE11.3 kmh NE 11.0 mph17.7 kmh 29.93 in1013.5 mb 0.00 in0.0 mm 0.00 in0.0 mm 0.00 in0.0 mm
01:20 PM 40.2°F4.6°C 25.0°F-3.9°C 54% 5.0 mph NE8.0 kmh NE -- 29.93 in1013.5 mb 0.00 in0.0 mm 0.00 in0.0 mm 0.00 in0.0 mm
01:25 PM 40.2°F4.6°C 24.4°F-4.2°C 53% 6.0 mph N9.7 kmh N -- 29.93 in1013.5 mb 0.00 in0.0 mm 0.00 in0.0 mm 0.00 in0.0 mm
01:30 PM 40.5°F4.7°C 25.5°F-3.6°C 55% 2.0 mph ENE3.2 kmh ENE -- 29.93 in1013.5 mb 0.00 in0.0 mm 0.00 in0.0 mm 0.00 in0.0 mm
01:35 PM 40.5°F4.7°C 24.6°F-4.1°C 53% 9.0 mph NE14.5 kmh NE -- 29.93 in1013.5 mb 0.00 in0.0 mm 0.00 in0.0 mm 0.00 in0.0 mm
01:40 PM 40.4°F4.7°C 24.3°F-4.3°C 52% 7.0 mph NE11.3 kmh NE 12.0 mph19.3 kmh 29.93 in1013.5 mb 0.00 in0.0 mm 0.00 in0.0 mm 0.00 in0.0 mm
01:45 PM 40.1°F4.5°C 24.4°F-4.2°C 53% 11.0 mph ENE17.7 kmh ENE -- 29.93 in1013.5 mb 0.00 in0.0 mm 0.00 in0.0 mm 0.00 in0.0 mm
01:50 PM 40.1°F4.5°C 23.9°F-4.5°C 52% 8.0 mph NE12.9 kmh NE -- 29.93 in1013.5 mb 0.00 in0.0 mm 0.00 in0.0 mm 0.00 in0.0 mm
01:55 PM 40.6°F4.8°C 24.4°F-4.2°C 52% 7.0 mph NE11.3 kmh NE -- 29.93 in1013.5 mb 0.00 in0.0 mm 0.00 in0.0 mm 0.00 in0.0 mm
02:00 PM 40.5°F4.7°C 24.6°F-4.1°C 53% 10.0 mph NNE16.1 kmh NNE -- 29.93 in1013.5 mb 0.00 in0.0 mm 0.00 in0.0 mm 0.00 in0.0 mm
02:05 PM 40.6°F4.8°C 23.9°F-4.5°C 51% 7.0 mph ENE11.3 kmh ENE 12.0 mph19.3 kmh 29.93 in1013.5 mb 0.00 in0.0 mm 0.00 in0.0 mm 0.00 in0.0 mm
02:10 PM 40.5°F4.7°C 24.3°F-4.3°C 52% 4.0 mph NE6.4 kmh NE -- 29.93 in1013.5 mb 0.00 in0.0 mm 0.00 in0.0 mm 0.00 in0.0 mm
02:15 PM 40.6°F4.8°C 23.9°F-4.5°C 51% 6.0 mph NE9.7 kmh NE -- 29.93 in1013.5 mb 0.00 in0.0 mm 0.00 in0.0 mm 0.00 in0.0 mm
02:20 PM 40.7°F4.8°C 24.4°F-4.2°C 52% 6.0 mph ENE9.7 kmh ENE -- 29.93 in1013.5 mb 0.00 in0.0 mm 0.00 in0.0 mm 0.00 in0.0 mm
02:25 PM 40.8°F4.9°C 23.7°F-4.6°C 50% 10.0 mph NE16.1 kmh NE -- 29.93 in1013.5 mb 0.00 in0.0 mm 0.00 in0.0 mm 0.00 in0.0 mm
02:30 PM 40.8°F4.9°C 23.7°F-4.6°C 50% 6.0 mph NE9.7 kmh NE 12.0 mph19.3 kmh 29.93 in1013.5 mb 0.00 in0.0 mm 0.00 in0.0 mm 0.00 in0.0 mm
02:35 PM 40.7°F4.8°C 23.0°F-5.0°C 49% 6.0 mph ENE9.7 kmh ENE -- 29.93 in1013.5 mb 0.00 in0.0 mm 0.00 in0.0 mm 0.00 in0.0 mm
02:40 PM 40.7°F4.8°C 23.5°F-4.7°C 50% 4.0 mph NE6.4 kmh NE -- 29.93 in1013.5 mb 0.00 in0.0 mm 0.00 in0.0 mm 0.00 in0.0 mm
02:45 PM 40.7°F4.8°C 23.5°F-4.7°C 50% 5.0 mph ENE8.0 kmh ENE -- 29.93 in1013.5 mb 0.00 in0.0 mm 0.00 in0.0 mm 0.00 in0.0 mm
02:50 PM 40.6°F4.8°C 23.9°F-4.5°C 51% 8.0 mph N12.9 kmh N -- 29.93 in1013.5 mb 0.00 in0.0 mm 0.00 in0.0 mm 0.00 in0.0 mm
02:55 PM 40.7°F4.8°C 23.5°F-4.7°C 50% 7.0 mph NE11.3 kmh NE 11.0 mph17.7 kmh 29.93 in1013.5 mb 0.00 in0.0 mm 0.00 in0.0 mm 0.00 in0.0 mm
03:00 PM 40.8°F4.9°C 23.7°F-4.6°C 50% 3.0 mph NNE4.8 kmh NNE -- 29.93 in1013.5 mb 0.00 in0.0 mm 0.00 in0.0 mm 0.00 in0.0 mm
03:05 PM 41.0°F5.0°C 23.7°F-4.6°C 50% 8.0 mph NNE12.9 kmh NNE -- 29.93 in1013.5 mb 0.00 in0.0 mm 0.00 in0.0 mm 0.00 in0.0 mm
03:10 PM 40.7°F4.8°C 24.4°F-4.2°C 52% 7.0 mph NE11.3 kmh NE -- 29.93 in1013.5 mb 0.00 in0.0 mm 0.00 in0.0 mm 0.00 in0.0 mm
03:15 PM 40.8°F4.9°C 24.1°F-4.4°C 51% 8.0 mph NE12.9 kmh NE -- 29.93 in1013.5 mb 0.00 in0.0 mm 0.00 in0.0 mm 0.00 in0.0 mm
03:20 PM 40.9°F4.9°C 24.6°F-4.1°C 52% 4.0 mph ENE6.4 kmh ENE 10.0 mph16.1 kmh 29.93 in1013.5 mb 0.00 in0.0 mm 0.00 in0.0 mm 0.00 in0.0 mm
03:25 PM 40.9°F4.9°C 25.0°F-3.9°C 53% 5.0 mph NE8.0 kmh NE -- 29.93 in1013.5 mb 0.00 in0.0 mm 0.00 in0.0 mm 0.00 in0.0 mm
03:30 PM 40.8°F4.9°C 24.6°F-4.1°C 52% 3.0 mph NE4.8 kmh NE -- 29.93 in1013.5 mb 0.00 in0.0 mm 0.00 in0.0 mm 0.00 in0.0 mm
03:35 PM 40.9°F4.9°C 24.1°F-4.4°C 51% 6.0 mph NE9.7 kmh NE -- 29.93 in1013.5 mb 0.00 in0.0 mm 0.00 in0.0 mm 0.00 in0.0 mm
03:40 PM 40.7°F4.8°C 25.3°F-3.7°C 54% 6.0 mph ENE9.7 kmh ENE -- 29.93 in1013.5 mb 0.00 in0.0 mm 0.00 in0.0 mm 0.00 in0.0 mm
03:45 PM 40.5°F4.7°C 25.2°F-3.8°C 54% 6.0 mph ENE9.7 kmh ENE 11.0 mph17.7 kmh 29.93 in1013.5 mb 0.00 in0.0 mm 0.00 in0.0 mm 0.00 in0.0 mm
03:50 PM 40.6°F4.8°C 26.2°F-3.2°C 56% 10.0 mph NE16.1 kmh NE -- 29.93 in1013.5 mb 0.00 in0.0 mm 0.00 in0.0 mm 0.00 in0.0 mm
03:55 PM 40.7°F4.8°C 25.7°F-3.5°C 55% 10.0 mph ENE16.1 kmh ENE -- 29.93 in1013.5 mb 0.00 in0.0 mm 0.00 in0.0 mm 0.00 in0.0 mm
04:00 PM 40.6°F4.8°C 24.8°F-4.0°C 53% 8.0 mph NE12.9 kmh NE -- 29.93 in1013.5 mb 0.00 in0.0 mm 0.00 in0.0 mm 0.00 in0.0 mm
04:05 PM 40.5°F4.7°C 25.5°F-3.6°C 55% 8.0 mph NE12.9 kmh NE -- 29.93 in1013.5 mb 0.00 in0.0 mm 0.00 in0.0 mm 0.00 in0.0 mm
04:10 PM 40.5°F4.7°C 26.1°F-3.3°C 56% 8.0 mph ENE12.9 kmh ENE 12.0 mph19.3 kmh 29.93 in1013.5 mb 0.00 in0.0 mm 0.00 in0.0 mm 0.00 in0.0 mm
04:15 PM 40.6°F4.8°C 26.2°F-3.2°C 56% 7.0 mph NE11.3 kmh NE -- 29.93 in1013.5 mb 0.00 in0.0 mm 0.00 in0.0 mm 0.00 in0.0 mm
04:20 PM 40.9°F4.9°C 25.5°F-3.6°C 54% 4.0 mph NE6.4 kmh NE -- 29.93 in1013.5 mb 0.00 in0.0 mm 0.00 in0.0 mm 0.00 in0.0 mm
04:25 PM 40.9°F4.9°C 25.0°F-3.9°C 53% 5.0 mph E8.0 kmh E -- 29.93 in1013.5 mb 0.00 in0.0 mm 0.00 in0.0 mm 0.00 in0.0 mm
04:30 PM 40.7°F4.8°C 25.3°F-3.7°C 54% 5.0 mph NE8.0 kmh NE -- 29.93 in1013.5 mb 0.00 in0.0 mm 0.00 in0.0 mm 0.00 in0.0 mm
04:35 PM 40.8°F4.9°C 25.9°F-3.4°C 55% 4.0 mph ENE6.4 kmh ENE 10.0 mph16.1 kmh 29.93 in1013.5 mb 0.00 in0.0 mm 0.00 in0.0 mm 0.00 in0.0 mm
04:40 PM 40.9°F4.9°C 25.9°F-3.4°C 55% 5.0 mph ENE8.0 kmh ENE -- 29.93 in1013.5 mb 0.00 in0.0 mm 0.00 in0.0 mm 0.00 in0.0 mm
04:45 PM 40.8°F4.9°C 25.5°F-3.6°C 54% 2.0 mph NE3.2 kmh NE -- 29.93 in1013.5 mb 0.00 in0.0 mm 0.00 in0.0 mm 0.00 in0.0 mm
04:50 PM 40.8°F4.9°C 25.9°F-3.4°C 55% 6.0 mph NE9.7 kmh NE -- 29.93 in1013.5 mb 0.00 in0.0 mm 0.00 in0.0 mm 0.00 in0.0 mm
04:55 PM 40.7°F4.8°C 24.8°F-4.0°C 53% 8.0 mph NE12.9 kmh NE -- 29.92 in1013.2 mb 0.00 in0.0 mm 0.00 in0.0 mm 0.00 in0.0 mm
05:00 PM 40.7°F4.8°C 24.8°F-4.0°C 53% 5.0 mph NE8.0 kmh NE 11.0 mph17.7 kmh 29.92 in1013.2 mb 0.00 in0.0 mm 0.00 in0.0 mm 0.00 in0.0 mm
05:05 PM 40.6°F4.8°C 23.9°F-4.5°C 51% 5.0 mph ENE8.0 kmh ENE -- 29.93 in1013.5 mb 0.00 in0.0 mm 0.00 in0.0 mm 0.00 in0.0 mm
05:10 PM 40.9°F4.9°C 24.6°F-4.1°C 52% 7.0 mph NE11.3 kmh NE -- 29.92 in1013.2 mb 0.00 in0.0 mm 0.00 in0.0 mm 0.00 in0.0 mm
05:15 PM 40.9°F4.9°C 24.1°F-4.4°C 51% 3.0 mph NE4.8 kmh NE -- 29.93 in1013.5 mb 0.00 in0.0 mm 0.00 in0.0 mm 0.00 in0.0 mm
05:20 PM 41.0°F5.0°C 24.3°F-4.3°C 51% 4.0 mph ENE6.4 kmh ENE -- 29.93 in1013.5 mb 0.00 in0.0 mm 0.00 in0.0 mm 0.00 in0.0 mm
05:25 PM 41.0°F5.0°C 23.7°F-4.6°C 50% 5.0 mph ENE8.0 kmh ENE 10.0 mph16.1 kmh 29.93 in1013.5 mb 0.00 in0.0 mm 0.00 in0.0 mm 0.00 in0.0 mm
05:30 PM 40.9°F4.9°C 24.1°F-4.4°C 51% 4.0 mph ENE6.4 kmh ENE -- 29.93 in1013.5 mb 0.00 in0.0 mm 0.00 in0.0 mm 0.00 in0.0 mm
05:35 PM 40.8°F4.9°C 24.6°F-4.1°C 52% 1.0 mph NE1.6 kmh NE -- 29.93 in1013.5 mb 0.00 in0.0 mm 0.00 in0.0 mm 0.00 in0.0 mm
05:40 PM 40.8°F4.9°C 24.6°F-4.1°C 52% 5.0 mph ENE8.0 kmh ENE -- 29.93 in1013.5 mb 0.00 in0.0 mm 0.00 in0.0 mm 0.00 in0.0 mm
05:45 PM 40.7°F4.8°C 24.4°F-4.2°C 52% 6.0 mph NE9.7 kmh NE -- 29.92 in1013.2 mb 0.00 in0.0 mm 0.00 in0.0 mm 0.00 in0.0 mm
05:50 PM 40.5°F4.7°C 24.6°F-4.1°C 53% 8.0 mph NE12.9 kmh NE 10.0 mph16.1 kmh 29.93 in1013.5 mb 0.00 in0.0 mm 0.00 in0.0 mm 0.00 in0.0 mm
05:55 PM 40.5°F4.7°C 25.2°F-3.8°C 54% 5.0 mph ENE8.0 kmh ENE -- 29.92 in1013.2 mb 0.00 in0.0 mm 0.00 in0.0 mm 0.00 in0.0 mm
06:00 PM 40.6°F4.8°C 24.8°F-4.0°C 53% 4.0 mph NE6.4 kmh NE -- 29.92 in1013.2 mb 0.00 in0.0 mm 0.00 in0.0 mm 0.00 in0.0 mm
06:05 PM 40.7°F4.8°C 25.7°F-3.5°C 55% 6.0 mph NE9.7 kmh NE -- 29.93 in1013.5 mb 0.00 in0.0 mm 0.00 in0.0 mm 0.00 in0.0 mm
06:10 PM 40.5°F4.7°C 25.2°F-3.8°C 54% 8.0 mph ENE12.9 kmh ENE -- 29.93 in1013.5 mb 0.00 in0.0 mm 0.00 in0.0 mm 0.00 in0.0 mm
06:15 PM 40.5°F4.7°C 25.5°F-3.6°C 55% 5.0 mph NE8.0 kmh NE 11.0 mph17.7 kmh 29.93 in1013.5 mb 0.00 in0.0 mm 0.00 in0.0 mm 0.00 in0.0 mm
06:20 PM 40.5°F4.7°C 25.5°F-3.6°C 55% 2.0 mph NE3.2 kmh NE -- 29.93 in1013.5 mb 0.00 in0.0 mm 0.00 in0.0 mm 0.00 in0.0 mm
06:25 PM 40.4°F4.7°C 25.5°F-3.6°C 55% 3.0 mph NE4.8 kmh NE -- 29.93 in1013.5 mb 0.00 in0.0 mm 0.00 in0.0 mm 0.00 in0.0 mm
06:30 PM 40.3°F4.6°C 25.0°F-3.9°C 54% 4.0 mph NE6.4 kmh NE -- 29.93 in1013.5 mb 0.00 in0.0 mm 0.00 in0.0 mm 0.00 in0.0 mm
06:35 PM 40.2°F4.6°C 25.9°F-3.4°C 56% 4.0 mph NE6.4 kmh NE -- 29.93 in1013.5 mb 0.00 in0.0 mm 0.00 in0.0 mm 0.00 in0.0 mm
06:40 PM 40.2°F4.6°C 25.9°F-3.4°C 56% 3.0 mph NNE4.8 kmh NNE 8.0 mph12.9 kmh 29.93 in1013.5 mb 0.00 in0.0 mm 0.00 in0.0 mm 0.00 in0.0 mm
06:45 PM 40.1°F4.5°C 25.2°F-3.8°C 55% 2.0 mph NE3.2 kmh NE -- 29.93 in1013.5 mb 0.00 in0.0 mm 0.00 in0.0 mm 0.00 in0.0 mm
06:50 PM 40.1°F4.5°C 25.7°F-3.5°C 56% 3.0 mph NE4.8 kmh NE -- 29.93 in1013.5 mb 0.00 in0.0 mm 0.00 in0.0 mm 0.00 in0.0 mm
06:55 PM 40.0°F4.4°C 25.5°F-3.6°C 56% 3.0 mph NE4.8 kmh NE -- 29.92 in1013.2 mb 0.00 in0.0 mm 0.00 in0.0 mm 0.00 in0.0 mm
07:00 PM 40.0°F4.4°C 25.5°F-3.6°C 56% 5.0 mph ENE8.0 kmh ENE -- 29.93 in1013.5 mb 0.00 in0.0 mm 0.00 in0.0 mm 0.00 in0.0 mm
07:05 PM 40.1°F4.5°C 26.1°F-3.3°C 57% 4.0 mph NE6.4 kmh NE 10.0 mph16.1 kmh 29.92 in1013.2 mb 0.00 in0.0 mm 0.00 in0.0 mm 0.00 in0.0 mm
07:10 PM 40.1°F4.5°C 26.6°F-3.0°C 58% 5.0 mph NE8.0 kmh NE -- 29.92 in1013.2 mb 0.00 in0.0 mm 0.00 in0.0 mm 0.00 in0.0 mm
07:15 PM 40.1°F4.5°C 27.0°F-2.8°C 59% 2.0 mph NE3.2 kmh NE -- 29.92 in1013.2 mb 0.00 in0.0 mm 0.00 in0.0 mm 0.00 in0.0 mm
07:20 PM 40.0°F4.4°C 26.8°F-2.9°C 59% 4.0 mph NE6.4 kmh NE -- 29.92 in1013.2 mb 0.00 in0.0 mm 0.00 in0.0 mm 0.00 in0.0 mm
07:25 PM 40.0°F4.4°C 27.1°F-2.7°C 60% 3.0 mph NNE4.8 kmh NNE -- 29.92 in1013.2 mb 0.00 in0.0 mm 0.00 in0.0 mm 0.00 in0.0 mm
07:30 PM 39.9°F4.4°C 27.1°F-2.7°C 60% 2.0 mph NNE3.2 kmh NNE 9.0 mph14.5 kmh 29.92 in1013.2 mb 0.00 in0.0 mm 0.00 in0.0 mm 0.00 in0.0 mm
07:35 PM 39.8°F4.3°C 27.0°F-2.8°C 60% 2.0 mph NE3.2 kmh NE -- 29.92 in1013.2 mb 0.00 in0.0 mm 0.00 in0.0 mm 0.00 in0.0 mm
07:40 PM 39.7°F4.3°C 27.3°F-2.6°C 61% 2.0 mph NE3.2 kmh NE -- 29.92 in1013.2 mb 0.00 in0.0 mm 0.00 in0.0 mm 0.00 in0.0 mm
07:45 PM 39.6°F4.2°C 26.8°F-2.9°C 60% 4.0 mph NNE6.4 kmh NNE -- 29.92 in1013.2 mb 0.00 in0.0 mm 0.00 in0.0 mm 0.00 in0.0 mm
07:50 PM 39.6°F4.2°C 27.3°F-2.6°C 61% 7.0 mph N11.3 kmh N -- 29.92 in1013.2 mb 0.00 in0.0 mm 0.00 in0.0 mm 0.00 in0.0 mm
07:55 PM 39.6°F4.2°C 27.7°F-2.4°C 62% 4.0 mph NE6.4 kmh NE 8.0 mph12.9 kmh 29.92 in1013.2 mb 0.00 in0.0 mm 0.00 in0.0 mm 0.00 in0.0 mm
08:00 PM 39.4°F4.1°C 27.9°F-2.3°C 63% 1.0 mph NNE1.6 kmh NNE -- 29.92 in1013.2 mb 0.00 in0.0 mm 0.00 in0.0 mm 0.00 in0.0 mm
08:05 PM 39.3°F4.1°C 27.9°F-2.3°C 63% Calm Calm -- 29.92 in1013.2 mb 0.00 in0.0 mm 0.00 in0.0 mm 0.00 in0.0 mm
08:10 PM 38.9°F3.8°C 27.7°F-2.4°C 64% Calm Calm -- 29.92 in1013.2 mb 0.00 in0.0 mm 0.00 in0.0 mm 0.00 in0.0 mm
08:15 PM 38.8°F3.8°C 28.0°F-2.2°C 65% 1.0 mph NW1.6 kmh NW -- 29.92 in1013.2 mb 0.00 in0.0 mm 0.00 in0.0 mm 0.00 in0.0 mm
08:20 PM 38.4°F3.6°C 27.7°F-2.4°C 65% Calm Calm 5.0 mph8.0 kmh 29.92 in1013.2 mb 0.00 in0.0 mm 0.00 in0.0 mm 0.00 in0.0 mm
08:25 PM 38.0°F3.3°C 28.0°F-2.2°C 67% 1.0 mph NW1.6 kmh NW -- 29.92 in1013.2 mb 0.00 in0.0 mm 0.00 in0.0 mm 0.00 in0.0 mm
08:30 PM 37.3°F2.9°C 27.3°F-2.6°C 67% 4.0 mph WSW6.4 kmh WSW -- 29.92 in1013.2 mb 0.00 in0.0 mm 0.00 in0.0 mm 0.00 in0.0 mm
08:35 PM 36.6°F2.6°C 27.1°F-2.7°C 68% 3.0 mph WSW4.8 kmh WSW -- 29.92 in1013.2 mb 0.00 in0.0 mm 0.00 in0.0 mm 0.00 in0.0 mm
08:40 PM 36.4°F2.4°C 27.1°F-2.7°C 69% 5.0 mph WSW8.0 kmh WSW -- 29.92 in1013.2 mb 0.00 in0.0 mm 0.00 in0.0 mm 0.00 in0.0 mm
08:45 PM 36.2°F2.3°C 27.3°F-2.6°C 70% 3.0 mph WSW4.8 kmh WSW 5.0 mph8.0 kmh 29.92 in1013.2 mb 0.00 in0.0 mm 0.00 in0.0 mm 0.00 in0.0 mm
08:50 PM 36.1°F2.3°C 27.7°F-2.4°C 71% 4.0 mph WSW6.4 kmh WSW -- 29.92 in1013.2 mb 0.00 in0.0 mm 0.00 in0.0 mm 0.00 in0.0 mm
08:55 PM 36.2°F2.3°C 27.7°F-2.4°C 71% 2.0 mph WSW3.2 kmh WSW -- 29.92 in1013.2 mb 0.00 in0.0 mm 0.00 in0.0 mm 0.00 in0.0 mm
09:00 PM 36.1°F2.3°C 27.7°F-2.4°C 71% 3.0 mph WSW4.8 kmh WSW -- 29.92 in1013.2 mb 0.00 in0.0 mm 0.00 in0.0 mm 0.00 in0.0 mm
09:05 PM 36.1°F2.3°C 28.0°F-2.2°C 72% 2.0 mph WSW3.2 kmh WSW -- 29.92 in1013.2 mb 0.00 in0.0 mm 0.00 in0.0 mm 0.00 in0.0 mm
09:10 PM 36.1°F2.3°C 28.4°F-2.0°C 73% 3.0 mph N4.8 kmh N 3.0 mph4.8 kmh 29.92 in1013.2 mb 0.00 in0.0 mm 0.00 in0.0 mm 0.00 in0.0 mm
09:15 PM 36.9°F2.7°C 29.3°F-1.5°C 74% Calm Calm -- 29.92 in1013.2 mb 0.00 in0.0 mm 0.00 in0.0 mm 0.00 in0.0 mm
09:20 PM 36.1°F2.3°C 28.0°F-2.2°C 72% 4.0 mph WSW6.4 kmh WSW -- 29.92 in1013.2 mb 0.00 in0.0 mm 0.00 in0.0 mm 0.00 in0.0 mm
09:25 PM 35.6°F2.0°C 27.9°F-2.3°C 73% 4.0 mph WSW6.4 kmh WSW -- 29.92 in1013.2 mb 0.00 in0.0 mm 0.00 in0.0 mm 0.00 in0.0 mm
09:30 PM 35.6°F2.0°C 28.2°F-2.1°C 74% 1.0 mph WSW1.6 kmh WSW -- 29.93 in1013.5 mb 0.00 in0.0 mm 0.00 in0.0 mm 0.00 in0.0 mm
09:35 PM 35.8°F2.1°C 28.6°F-1.9°C 75% 1.0 mph WSW1.6 kmh WSW 4.0 mph6.4 kmh 29.92 in1013.2 mb 0.00 in0.0 mm 0.00 in0.0 mm 0.00 in0.0 mm
09:40 PM 36.3°F2.4°C 29.5°F-1.4°C 76% Calm Calm -- 29.92 in1013.2 mb 0.00 in0.0 mm 0.00 in0.0 mm 0.00 in0.0 mm
09:45 PM 36.9°F2.7°C 30.0°F-1.1°C 76% 3.0 mph N4.8 kmh N -- 29.92 in1013.2 mb 0.00 in0.0 mm 0.00 in0.0 mm 0.00 in0.0 mm
09:50 PM 37.8°F3.2°C 30.6°F-0.8°C 75% Calm Calm -- 29.92 in1013.2 mb 0.00 in0.0 mm 0.00 in0.0 mm 0.00 in0.0 mm
09:55 PM 38.2°F3.4°C 30.6°F-0.8°C 74% 5.0 mph NNE8.0 kmh NNE -- 29.92 in1013.2 mb 0.00 in0.0 mm 0.00 in0.0 mm 0.00 in0.0 mm
10:00 PM 38.4°F3.6°C 30.6°F-0.8°C 73% 4.0 mph NW6.4 kmh NW 7.0 mph11.3 kmh 29.92 in1013.2 mb 0.00 in0.0 mm 0.00 in0.0 mm 0.00 in0.0 mm
10:05 PM 38.5°F3.6°C 30.2°F-1.0°C 72% Calm Calm -- 29.92 in1013.2 mb 0.00 in0.0 mm 0.00 in0.0 mm 0.00 in0.0 mm
10:10 PM 38.4°F3.6°C 30.2°F-1.0°C 72% 1.0 mph NE1.6 kmh NE -- 29.92 in1013.2 mb 0.00 in0.0 mm 0.00 in0.0 mm 0.00 in0.0 mm
10:15 PM 38.4°F3.6°C 30.2°F-1.0°C 72% 6.0 mph N9.7 kmh N -- 29.92 in1013.2 mb 0.00 in0.0 mm 0.00 in0.0 mm 0.00 in0.0 mm
10:20 PM 38.5°F3.6°C 30.2°F-1.0°C 72% 7.0 mph NE11.3 kmh NE -- 29.92 in1013.2 mb 0.00 in0.0 mm 0.00 in0.0 mm 0.00 in0.0 mm
10:25 PM 38.7°F3.7°C 30.7°F-0.7°C 73% 2.0 mph NNE3.2 kmh NNE 9.0 mph14.5 kmh 29.92 in1013.2 mb 0.00 in0.0 mm 0.00 in0.0 mm 0.00 in0.0 mm
10:30 PM 38.7°F3.7°C 30.7°F-0.7°C 73% 4.0 mph NNE6.4 kmh NNE -- 29.92 in1013.2 mb 0.00 in0.0 mm 0.00 in0.0 mm 0.00 in0.0 mm
10:35 PM 38.6°F3.7°C 30.7°F-0.7°C 73% 3.0 mph N4.8 kmh N -- 29.92 in1013.2 mb 0.00 in0.0 mm 0.00 in0.0 mm 0.00 in0.0 mm
10:40 PM 38.5°F3.6°C 30.2°F-1.0°C 72% 5.0 mph NNW8.0 kmh NNW -- 29.92 in1013.2 mb 0.00 in0.0 mm 0.00 in0.0 mm 0.00 in0.0 mm
10:45 PM 38.1°F3.4°C 29.8°F-1.2°C 72% 2.0 mph W3.2 kmh W -- 29.92 in1013.2 mb 0.00 in0.0 mm 0.00 in0.0 mm 0.00 in0.0 mm
10:50 PM 37.5°F3.1°C 29.7°F-1.3°C 73% 2.0 mph WNW3.2 kmh WNW 7.0 mph11.3 kmh 29.92 in1013.2 mb 0.00 in0.0 mm 0.00 in0.0 mm 0.00 in0.0 mm
10:55 PM 37.3°F2.9°C 29.7°F-1.3°C 74% 3.0 mph WNW4.8 kmh WNW -- 29.92 in1013.2 mb 0.00 in0.0 mm 0.00 in0.0 mm 0.00 in0.0 mm
11:00 PM 36.6°F2.6°C 29.1°F-1.6°C 74% 4.0 mph WSW6.4 kmh WSW -- 29.92 in1013.2 mb 0.00 in0.0 mm 0.00 in0.0 mm 0.00 in0.0 mm
11:05 PM 35.9°F2.2°C 28.8°F-1.8°C 75% 4.0 mph WSW6.4 kmh WSW -- 29.92 in1013.2 mb 0.00 in0.0 mm 0.00 in0.0 mm 0.00 in0.0 mm
11:10 PM 35.6°F2.0°C 28.8°F-1.8°C 76% 4.0 mph WSW6.4 kmh WSW -- 29.92 in1013.2 mb 0.00 in0.0 mm 0.00 in0.0 mm 0.00 in0.0 mm
11:15 PM 35.1°F1.7°C 28.2°F-2.1°C 76% 3.0 mph WSW4.8 kmh WSW 7.0 mph11.3 kmh 29.92 in1013.2 mb 0.00 in0.0 mm 0.00 in0.0 mm 0.00 in0.0 mm
11:20 PM 35.0°F1.7°C 28.6°F-1.9°C 77% 5.0 mph W8.0 kmh W -- 29.92 in1013.2 mb 0.00 in0.0 mm 0.00 in0.0 mm 0.00 in0.0 mm
11:25 PM 35.2°F1.8°C 29.1°F-1.6°C 78% 4.0 mph W6.4 kmh W -- 29.92 in1013.2 mb 0.00 in0.0 mm 0.00 in0.0 mm 0.00 in0.0 mm
11:30 PM 34.7°F1.5°C 28.2°F-2.1°C 77% 5.0 mph W8.0 kmh W -- 29.92 in1013.2 mb 0.00 in0.0 mm 0.00 in0.0 mm 0.00 in0.0 mm
11:35 PM 34.5°F1.4°C 28.4°F-2.0°C 78% 5.0 mph WSW8.0 kmh WSW -- 29.92 in1013.2 mb 0.00 in0.0 mm 0.00 in0.0 mm 0.00 in0.0 mm
11:40 PM 34.1°F1.2°C 28.4°F-2.0°C 79% 4.0 mph W6.4 kmh W 6.0 mph9.7 kmh 29.92 in1013.2 mb 0.00 in0.0 mm 0.00 in0.0 mm 0.00 in0.0 mm
11:45 PM 34.1°F1.2°C 28.4°F-2.0°C 79% 5.0 mph WSW8.0 kmh WSW -- 29.92 in1013.2 mb 0.00 in0.0 mm 0.00 in0.0 mm 0.00 in0.0 mm
11:50 PM 34.2°F1.2°C 28.6°F-1.9°C 80% 6.0 mph WSW9.7 kmh WSW -- 29.92 in1013.2 mb 0.00 in0.0 mm 0.00 in0.0 mm 0.00 in0.0 mm
11:55 PM 33.9°F1.1°C 28.4°F-2.0°C 80% 5.0 mph WSW8.0 kmh WSW -- 29.92 in1013.2 mb 0.00 in0.0 mm 0.00 in0.0 mm 0.00 in0.0 mm